Time;durP1;ratioP1;P1;durP2;ratioP2;P2;SDS_P1;SDS_P2;PMS_P1;PMS_P2;Temp;Humidity;BMP_temperature;BMP_pressure;BME280_temperature;BME280_humidity;BME280_pressure;Samples;Min_cycle;Max_cycle;Signal;HPM_P1;HPM_P2
2023/02/01 00:01:43;;;;;;;6.80;3.42;;;4.00;99.90;;;;;;5094534;28;20040;-68
2023/02/01 00:04:08;;;;;;;7.10;2.97;;;3.90;99.90;;;;;;5093827;28;20031;-67
2023/02/01 00:06:34;;;;;;;4.53;3.20;;;3.90;99.90;;;;;;5095489;28;20105;-68
2023/02/01 00:09:00;;;;;;;4.63;3.15;;;3.90;99.90;;;;;;5096105;28;20055;-68
2023/02/01 00:11:25;;;;;;;5.35;2.88;;;3.90;99.90;;;;;;5094905;28;20461;-68
2023/02/01 00:13:51;;;;;;;4.88;2.85;;;3.80;99.90;;;;;;5094452;28;20020;-68
2023/02/01 00:16:23;;;;;;;4.70;2.97;;;3.90;99.90;;;;;;5090352;28;20473;-67
2023/02/01 00:18:50;;;;;;;3.67;2.72;;;3.90;99.90;;;;;;5099933;28;20066;-67
2023/02/01 00:21:18;;;;;;;3.15;2.70;;;3.90;99.90;;;;;;5093865;28;20059;-68
2023/02/01 00:23:44;;;;;;;4.13;2.72;;;3.90;99.90;;;;;;5094471;28;20024;-67
2023/02/01 00:26:24;;;;;;;4.35;2.70;;;3.90;99.90;;;;;;5081952;27;20059;-68
2023/02/01 00:28:50;;;;;;;;;;;3.90;99.90;;;;;;5080384;28;20021;-67
2023/02/01 00:31:15;;;;;;;3.58;2.67;;;3.90;99.90;;;;;;5073856;28;19916;-67
2023/02/01 00:33:41;;;;;;;5.28;2.40;;;3.80;99.90;;;;;;5067824;28;20024;-68
2023/02/01 00:36:09;;;;;;;3.92;2.22;;;3.90;99.90;;;;;;5073255;28;20461;-68
2023/02/01 00:38:37;;;;;;;2.88;2.30;;;3.90;99.90;;;;;;5074040;28;20376;-67
2023/02/01 00:41:20;;;;;;;2.72;2.05;;;3.90;99.90;;;;;;5073163;28;20758;-67
2023/02/01 00:43:46;;;;;;;4.40;2.17;;;3.90;99.90;;;;;;5061819;28;20051;-68
2023/02/01 00:46:14;;;;;;;2.92;2.10;;;4.00;99.90;;;;;;5072620;28;20028;-68
2023/02/01 00:48:40;;;;;;;3.90;2.25;;;3.90;99.90;;;;;;5071622;28;20016;-68
2023/02/01 00:51:08;;;;;;;4.10;2.25;;;3.90;99.90;;;;;;5068940;28;20115;-67
2023/02/01 00:53:35;;;;;;;4.13;2.10;;;3.90;99.90;;;;;;5072788;28;20037;-68
2023/02/01 00:56:00;;;;;;;2.85;2.22;;;3.90;99.90;;;;;;5068675;28;20116;-68
2023/02/01 00:58:26;;;;;;;3.33;2.03;;;3.90;99.90;;;;;;5070873;28;20103;-68
2023/02/01 01:01:07;;;;;;;3.67;2.60;;;3.90;99.90;;;;;;5072700;28;20028;-68
2023/02/01 01:03:34;;;;;;;2.33;2.10;;;3.90;99.90;;;;;;5073360;28;20374;-68
2023/02/01 01:06:02;;;;;;;4.05;2.53;;;3.90;99.90;;;;;;5072851;28;20051;-69
2023/02/01 01:08:28;;;;;;;2.45;1.92;;;4.00;99.90;;;;;;5062564;28;20028;-68
2023/02/01 01:10:53;;;;;;;4.35;2.28;;;4.00;99.90;;;;;;5072500;28;20039;-67
2023/02/01 01:13:19;;;;;;;2.53;2.20;;;4.00;99.90;;;;;;5073387;28;20025;-67
2023/02/01 01:15:45;;;;;;;3.17;2.15;;;4.00;99.90;;;;;;5077808;28;20051;-67
2023/02/01 01:18:10;;;;;;;4.63;2.22;;;4.00;99.90;;;;;;5080238;28;20040;-68
2023/02/01 01:20:38;;;;;;;2.78;2.22;;;4.10;99.90;;;;;;5073683;28;20079;-68
2023/02/01 01:23:04;;;;;;;2.45;1.77;;;4.00;99.90;;;;;;5079794;28;20481;-68
2023/02/01 01:25:31;;;;;;;2.88;1.90;;;4.00;99.90;;;;;;5072819;28;20497;-67
2023/02/01 01:27:56;;;;;;;2.90;2.13;;;4.00;99.90;;;;;;5071441;28;20032;-68
2023/02/01 01:30:22;;;;;;;3.25;1.85;;;3.90;99.90;;;;;;5072979;28;20029;-68
2023/02/01 01:32:48;;;;;;;2.75;1.70;;;3.90;99.90;;;;;;5072698;28;20031;-68
2023/02/01 01:35:14;;;;;;;3.15;1.60;;;3.80;99.90;;;;;;5071536;28;20314;-67
2023/02/01 01:37:40;;;;;;;2.47;1.70;;;3.90;99.90;;;;;;5072511;28;20096;-67
2023/02/01 01:40:07;;;;;;;3.42;1.65;;;3.90;99.90;;;;;;5071794;28;20027;-68
2023/02/01 01:42:41;;;;;;;1.55;1.45;;;3.90;99.90;;;;;;5072372;28;20032;-68
2023/02/01 01:45:11;;;;;;;2.33;1.60;;;4.00;99.90;;;;;;5067569;28;20036;-67
2023/02/01 01:47:42;;;;;;;1.80;1.20;;;4.00;99.90;;;;;;5072567;28;20049;-67
2023/02/01 01:50:12;;;;;;;1.45;1.30;;;4.00;99.90;;;;;;5071555;28;20043;-68
2023/02/01 01:52:41;;;;;;;2.05;1.45;;;4.00;99.90;;;;;;5072192;28;20381;-68
2023/02/01 01:55:07;;;;;;;1.63;1.50;;;4.00;99.90;;;;;;5071251;28;20016;-68
2023/02/01 01:57:39;;;;;;;2.95;1.63;;;4.00;99.90;;;;;;5072311;28;20024;-68
2023/02/01 02:00:12;;;;;;;1.60;1.40;;;4.00;99.90;;;;;;5071043;28;20469;-69
2023/02/01 02:02:40;;;;;;;1.67;1.48;;;4.00;99.90;;;;;;5072296;28;20074;-68
2023/02/01 02:05:07;;;;;;;2.03;1.60;;;3.90;99.90;;;;;;5071410;28;20033;-68
2023/02/01 02:07:37;;;;;;;2.70;1.75;;;3.90;99.90;;;;;;5072307;28;20131;-68
2023/02/01 02:10:10;;;;;;;1.92;1.50;;;3.80;99.90;;;;;;5071113;28;20059;-68
2023/02/01 02:12:38;;;;;;;2.15;1.60;;;3.80;99.90;;;;;;5068271;28;20051;-68
2023/02/01 02:15:06;;;;;;;3.53;1.77;;;3.80;99.90;;;;;;5071043;28;20029;-66
2023/02/01 02:17:56;;;;;;;2.60;2.22;;;3.80;99.90;;;;;;5072448;28;20099;-67
2023/02/01 02:20:51;;;;;;;2.58;1.90;;;3.90;99.90;;;;;;5072226;28;20027;-68
2023/02/01 02:23:58;;;;;;;3.70;1.83;;;3.90;99.90;;;;;;5051474;28;20053;-69
2023/02/01 02:26:42;;;;;;;3.70;2.00;;;3.90;99.90;;;;;;5086634;28;20040;-68
2023/02/01 02:29:49;;;;;;;2.13;1.85;;;3.90;99.90;;;;;;5083409;28;20031;-68
2023/02/01 02:32:53;;;;;;;2.03;1.83;;;3.90;99.90;;;;;;5091347;28;20599;-68
2023/02/01 02:35:33;;;;;;;3.42;2.15;;;3.90;99.90;;;;;;5079682;28;20035;-68
2023/02/01 02:38:21;;;;;;;1.65;1.55;;;3.80;99.90;;;;;;5086709;28;20509;-68
2023/02/01 03:04:17;;;;;;;3.03;2.10;;;4.00;99.90;;;;;;5090861;28;20081;-68
2023/02/01 03:06:43;;;;;;;3.03;2.40;;;4.00;99.90;;;;;;5092023;28;20020;-68
2023/02/01 03:09:48;;;;;;;3.20;1.92;;;4.00;99.90;;;;;;5090236;28;20048;-68
2023/02/01 03:15:12;;;;;;;2.33;2.00;;;4.00;99.90;;;;;;5024473;28;20559;-68
2023/02/01 03:17:42;;;;;;;2.28;2.00;;;4.00;99.90;;;;;;5020801;28;20521;-67
2023/02/01 03:20:10;;;;;;;2.35;1.92;;;3.90;99.90;;;;;;5015190;28;20084;-68
2023/02/01 03:22:39;;;;;;;3.45;1.98;;;4.00;99.90;;;;;;5011570;28;20232;-68
2023/02/01 03:25:14;;;;;;;4.65;2.22;;;3.90;99.90;;;;;;5023436;28;20132;-68
2023/02/01 03:27:52;;;;;;;2.40;2.10;;;3.90;99.90;;;;;;5021058;28;20034;-67
2023/02/01 03:30:20;;;;;;;2.97;1.80;;;4.00;99.90;;;;;;5024661;28;20037;-67
2023/02/01 03:33:01;;;;;;;2.53;1.63;;;4.00;99.90;;;;;;5015996;28;20088;-67
2023/02/01 03:35:35;;;;;;;1.95;1.75;;;4.00;99.90;;;;;;5032645;28;20140;-67
2023/02/01 03:38:13;;;;;;;2.63;2.30;;;4.10;99.90;;;;;;5027908;28;20124;-67
2023/02/01 03:40:41;;;;;;;2.67;2.15;;;4.10;99.90;;;;;;5029194;28;20052;-67
2023/02/01 03:43:14;;;;;;;2.78;2.10;;;4.10;99.90;;;;;;5051021;28;20040;-68
2023/02/01 03:45:44;;;;;;;4.53;2.83;;;4.10;99.90;;;;;;5090192;28;20028;-67
2023/02/01 03:48:13;;;;;;;2.42;2.17;;;4.10;99.90;;;;;;5090616;28;20032;-67
2023/02/01 03:50:49;;;;;;;4.35;2.83;;;4.10;99.90;;;;;;5084121;28;20038;-67
2023/02/01 03:53:20;;;;;;;2.13;1.88;;;4.10;99.90;;;;;;5087702;28;20202;-67
2023/02/01 03:55:46;;;;;;;2.42;1.90;;;4.10;99.90;;;;;;5086447;28;20040;-68
2023/02/01 03:58:23;;;;;;;2.70;2.05;;;4.10;99.90;;;;;;5090014;28;20024;-68
2023/02/01 04:00:57;;;;;;;2.63;2.00;;;4.10;99.90;;;;;;5086248;28;20024;-67
2023/02/01 04:03:24;;;;;;;4.60;2.05;;;4.10;99.90;;;;;;5090489;28;20024;-67
2023/02/01 04:05:51;;;;;;;3.70;2.30;;;4.20;99.90;;;;;;5090843;28;20370;-67
2023/02/01 04:08:17;;;;;;;4.47;2.20;;;4.20;99.90;;;;;;5078734;28;20025;-67
2023/02/01 04:10:43;;;;;;;3.53;2.05;;;4.10;99.90;;;;;;5090799;28;20034;-67
2023/02/01 04:13:09;;;;;;;2.80;2.25;;;4.10;99.90;;;;;;5089486;28;20036;-66
2023/02/01 04:15:35;;;;;;;3.00;1.98;;;4.10;99.90;;;;;;5090659;28;20034;-67
2023/02/01 04:18:01;;;;;;;3.97;2.17;;;4.00;99.90;;;;;;5089246;28;20028;-68
2023/02/01 04:20:26;;;;;;;4.13;2.80;;;4.00;99.90;;;;;;5090809;28;20361;-67
2023/02/01 04:22:52;;;;;;;3.42;2.40;;;4.00;99.90;;;;;;5090295;28;20111;-68
2023/02/01 04:25:17;;;;;;;6.57;2.30;;;4.00;99.90;;;;;;5089443;28;20552;-67
2023/02/01 04:27:43;;;;;;;3.60;2.50;;;4.00;99.90;;;;;;5090484;28;20024;-68
2023/02/01 04:30:10;;;;;;;4.00;2.78;;;4.00;99.90;;;;;;5089009;28;20071;-69
2023/02/01 04:32:37;;;;;;;4.00;2.75;;;4.10;99.90;;;;;;5090754;28;20430;-68
2023/02/01 04:35:03;;;;;;;3.33;2.30;;;4.10;99.90;;;;;;5085632;28;20024;-68
2023/02/01 04:37:28;;;;;;;4.60;3.00;;;4.10;99.90;;;;;;5094421;28;20036;-68
2023/02/01 04:39:54;;;;;;;6.22;3.15;;;4.10;99.90;;;;;;5093074;28;20093;-68
2023/02/01 04:42:20;;;;;;;5.22;3.28;;;4.10;99.90;;;;;;5094253;28;20028;-68
2023/02/01 04:44:45;;;;;;;3.70;2.88;;;4.00;99.90;;;;;;5089687;28;20435;-68
2023/02/01 04:47:11;;;;;;;5.38;2.60;;;4.00;99.90;;;;;;5093204;28;20105;-68
2023/02/01 04:49:37;;;;;;;4.72;2.40;;;3.90;99.90;;;;;;5093395;28;20051;-68
2023/02/01 04:52:03;;;;;;;3.05;2.15;;;4.00;99.90;;;;;;5093733;28;20042;-68
2023/02/01 04:54:28;;;;;;;3.08;2.25;;;4.00;99.90;;;;;;5093696;28;20028;-67
2023/02/01 04:56:54;;;;;;;3.25;2.10;;;4.10;99.90;;;;;;5093856;28;20031;-67
2023/02/01 04:59:19;;;;;;;2.53;1.88;;;4.10;99.90;;;;;;5093665;28;20031;-68
2023/02/01 05:01:45;;;;;;;3.33;2.15;;;4.20;99.90;;;;;;5093922;28;20060;-66
2023/02/01 05:04:10;;;;;;;3.45;2.00;;;4.20;99.90;;;;;;5093073;28;20232;-68
2023/02/01 05:06:36;;;;;;;2.75;2.30;;;4.20;99.90;;;;;;5088144;28;20069;-68
2023/02/01 05:09:02;;;;;;;2.63;1.95;;;4.20;99.90;;;;;;5102479;28;20090;-68
2023/02/01 05:14:11;;;;;;;2.83;2.10;;;4.20;99.90;;;;;;5092708;28;20075;-68
2023/02/01 05:16:37;;;;;;;4.45;2.03;;;4.20;99.90;;;;;;5090351;28;20052;-68
2023/02/01 05:19:02;;;;;;;2.28;1.67;;;4.20;99.90;;;;;;5082673;28;20326;-68
2023/02/01 05:21:28;;;;;;;2.65;1.67;;;4.30;99.90;;;;;;5093197;28;20036;-68
2023/02/01 05:24:19;;;;;;;1.90;1.70;;;4.30;99.90;;;;;;5087812;28;20416;-69
2023/02/01 05:26:40;;;;;;;2.80;1.77;;;4.30;99.90;;;;;;5080717;28;20468;-66
2023/02/01 05:29:08;;;;;;;4.72;2.42;;;4.30;99.90;;;;;;5087511;28;20079;-68
2023/02/01 05:31:34;;;;;;;3.50;1.90;;;4.40;99.90;;;;;;5092515;28;20036;-68
2023/02/01 05:34:00;;;;;;;2.95;1.98;;;4.40;99.90;;;;;;5094959;28;20081;-68
2023/02/01 05:36:25;;;;;;;3.28;1.90;;;4.40;99.90;;;;;;5090740;28;20031;-68
2023/02/01 05:38:51;;;;;;;1.98;1.38;;;4.50;99.90;;;;;;5083864;28;20025;-68
2023/02/01 05:41:17;;;;;;;3.78;1.83;;;4.50;99.90;;;;;;5092791;28;20032;-68
2023/02/01 05:43:42;;;;;;;2.58;1.50;;;4.50;99.90;;;;;;5088146;28;20089;-68
2023/02/01 05:46:10;;;;;;;1.88;1.70;;;4.40;99.90;;;;;;5092078;28;20522;-68
2023/02/01 05:48:36;;;;;;;2.53;1.48;;;4.40;99.90;;;;;;5091912;28;20070;-68
2023/02/01 05:51:01;;;;;;;2.30;1.73;;;4.40;99.90;;;;;;5084056;28;20063;-69
2023/02/01 05:53:27;;;;;;;2.00;1.40;;;4.40;99.90;;;;;;5085110;28;20483;-68
2023/02/01 05:55:52;;;;;;;1.63;1.23;;;4.40;99.90;;;;;;5092589;28;20028;-68
2023/02/01 05:58:18;;;;;;;2.67;1.77;;;4.40;99.90;;;;;;5086672;28;20025;-69
2023/02/01 06:00:44;;;;;;;3.13;2.40;;;4.50;99.90;;;;;;5094360;28;20070;-68
2023/02/01 06:03:09;;;;;;;2.78;1.85;;;4.40;99.90;;;;;;5091083;28;20431;-69
2023/02/01 06:05:35;;;;;;;2.75;1.70;;;4.30;99.90;;;;;;5092795;28;20074;-68
2023/02/01 06:08:00;;;;;;;4.05;1.95;;;4.10;99.90;;;;;;5091321;28;20429;-69
2023/02/01 06:10:26;;;;;;;3.50;1.70;;;4.10;99.90;;;;;;5092567;28;20073;-68
2023/02/01 06:12:52;;;;;;;2.60;2.20;;;4.00;99.90;;;;;;5091805;28;20024;-68
2023/02/01 06:15:18;;;;;;;3.15;1.60;;;3.90;99.90;;;;;;5091554;28;20107;-68
2023/02/01 06:17:45;;;;;;;3.55;1.73;;;3.80;99.90;;;;;;5087505;28;20500;-68
2023/02/01 06:20:13;;;;;;;2.85;1.70;;;3.80;99.90;;;;;;5091099;28;20024;-68
2023/02/01 06:22:39;;;;;;;2.85;1.35;;;3.80;99.90;;;;;;5091353;28;20032;-78
2023/02/01 06:25:06;;;;;;;2.58;1.35;;;3.80;99.90;;;;;;5063501;28;20044;-68
2023/02/01 06:27:32;;;;;;;3.38;1.52;;;3.80;99.90;;;;;;5071847;28;20039;-72
2023/02/01 06:29:58;;;;;;;3.08;1.63;;;3.80;99.90;;;;;;5070639;28;20017;-68
2023/02/01 06:32:24;;;;;;;2.97;1.63;;;3.80;99.90;;;;;;5066028;28;20028;-68
2023/02/01 06:34:52;;;;;;;4.88;1.90;;;3.80;99.90;;;;;;5075863;28;20060;-68
2023/02/01 06:37:18;;;;;;;2.78;1.67;;;3.80;99.90;;;;;;5071213;28;20028;-68
2023/02/01 06:39:44;;;;;;;2.58;1.70;;;3.90;99.90;;;;;;5070186;28;20074;-68
2023/02/01 06:42:09;;;;;;;2.20;2.00;;;3.90;99.90;;;;;;5079230;28;20032;-71
2023/02/01 06:44:35;;;;;;;3.33;1.90;;;4.00;99.90;;;;;;5071113;28;20025;-68
2023/02/01 06:47:00;;;;;;;3.20;2.00;;;3.90;99.90;;;;;;5071829;28;20112;-67
2023/02/01 06:49:26;;;;;;;2.97;2.05;;;3.90;99.90;;;;;;5068396;28;20032;-68
2023/02/01 06:51:51;;;;;;;4.70;2.30;;;4.00;99.90;;;;;;5059208;28;20070;-69
2023/02/01 06:54:17;;;;;;;2.97;1.98;;;4.10;99.90;;;;;;5070327;28;20462;-68
2023/02/01 06:56:43;;;;;;;4.93;2.40;;;4.10;99.90;;;;;;5053057;28;20025;-67
2023/02/01 06:59:09;;;;;;;5.07;2.17;;;4.20;99.90;;;;;;5071454;28;20082;-68
2023/02/01 07:01:35;;;;;;;4.32;2.15;;;4.30;99.90;;;;;;5070777;28;20410;-67
2023/02/01 07:04:00;;;;;;;6.50;2.42;;;4.30;99.90;;;;;;5070246;28;20047;-67
2023/02/01 07:06:27;;;;;;;4.00;2.13;;;4.30;99.90;;;;;;5067867;28;20021;-67
2023/02/01 07:08:55;;;;;;;3.88;1.92;;;4.30;99.90;;;;;;5063169;28;20031;-68
2023/02/01 07:11:21;;;;;;;2.70;1.67;;;4.40;99.90;;;;;;5071214;28;20051;-69
2023/02/01 07:13:47;;;;;;;4.30;2.22;;;4.30;99.90;;;;;;5055006;28;20029;-69
2023/02/01 07:16:18;;;;;;;4.53;2.10;;;4.40;99.90;;;;;;5069652;28;20063;-69
2023/02/01 07:18:45;;;;;;;2.85;1.83;;;4.40;99.90;;;;;;5050218;28;20115;-68
2023/02/01 07:21:10;;;;;;;6.05;2.03;;;4.40;99.90;;;;;;5069682;28;20025;-67
2023/02/01 07:23:37;;;;;;;3.47;2.20;;;4.50;99.90;;;;;;5070467;28;20069;-66
2023/02/01 07:26:05;;;;;;;3.53;2.03;;;4.50;99.90;;;;;;5069237;28;20049;-68
2023/02/01 07:28:33;;;;;;;3.65;2.00;;;4.50;99.90;;;;;;5069889;28;20025;-66
2023/02/01 07:31:05;;;;;;;4.65;2.42;;;4.40;99.90;;;;;;5069715;28;20051;-68
2023/02/01 07:33:31;;;;;;;2.70;1.65;;;4.40;99.90;;;;;;5070435;28;20520;-67
2023/02/01 07:35:57;;;;;;;5.35;2.03;;;4.50;99.90;;;;;;5068482;28;20111;-65
2023/02/01 07:38:23;;;;;;;15.98;2.40;;;4.50;99.90;;;;;;5070090;28;20354;-65
2023/02/01 07:40:49;;;;;;;5.43;2.00;;;4.50;99.90;;;;;;5070632;28;20489;-66
2023/02/01 07:43:15;;;;;;;2.60;1.55;;;4.60;99.90;;;;;;5067325;28;20043;-65
2023/02/01 07:45:41;;;;;;;3.90;2.10;;;4.60;99.90;;;;;;5071769;28;20436;-66
2023/02/01 07:48:06;;;;;;;2.85;1.90;;;4.60;99.90;;;;;;5068606;28;20031;-66
2023/02/01 07:50:32;;;;;;;5.32;1.63;;;4.70;99.90;;;;;;5068102;28;20047;-66
2023/02/01 07:53:00;;;;;;;3.08;1.70;;;4.70;99.90;;;;;;5066479;28;20036;-66
2023/02/01 07:55:26;;;;;;;6.63;1.80;;;4.80;99.90;;;;;;5072717;28;20153;-67
2023/02/01 07:57:51;;;;;;;5.32;1.80;;;4.80;99.90;;;;;;5069928;28;20486;-66
2023/02/01 08:03:03;;;;;;;3.42;1.80;;;5.00;99.90;;;;;;5073634;28;20128;-66
2023/02/01 08:05:29;;;;;;;4.60;1.70;;;5.00;99.90;;;;;;5073925;28;20036;-66
2023/02/01 08:07:55;;;;;;;8.10;2.53;;;5.10;99.90;;;;;;5058942;28;20025;-66
2023/02/01 08:10:20;;;;;;;7.07;2.20;;;5.10;99.90;;;;;;5072077;28;20017;-66
2023/02/01 08:12:51;;;;;;;11.25;2.33;;;5.10;99.90;;;;;;5081497;28;20035;-67
2023/02/01 08:15:17;;;;;;;5.53;2.40;;;5.10;99.90;;;;;;5073257;28;20525;-66
2023/02/01 08:17:50;;;;;;;6.05;2.47;;;5.20;99.90;;;;;;5063570;28;20082;-66
2023/02/01 08:20:17;;;;;;;4.28;2.20;;;5.20;99.90;;;;;;5080861;28;20089;-66
2023/02/01 08:22:43;;;;;;;7.53;1.95;;;5.30;99.90;;;;;;5075806;28;20087;-66
2023/02/01 08:25:09;;;;;;;5.20;2.58;;;5.30;99.90;;;;;;5077453;28;20048;-66
2023/02/01 08:27:35;;;;;;;6.95;1.92;;;5.30;99.90;;;;;;5073999;28;20097;-66
2023/02/01 08:30:01;;;;;;;9.57;2.33;;;5.30;99.90;;;;;;5078729;28;20028;-66
2023/02/01 08:32:27;;;;;;;5.25;1.98;;;5.30;99.90;;;;;;5074014;28;20461;-66
2023/02/01 08:34:53;;;;;;;4.70;1.90;;;5.40;99.90;;;;;;5070864;28;20016;-66
2023/02/01 08:37:19;;;;;;;7.65;2.30;;;5.50;99.90;;;;;;5072591;28;20032;-66
2023/02/01 08:39:45;;;;;;;5.70;2.03;;;5.50;99.90;;;;;;5053766;28;20158;-66
2023/02/01 08:44:56;;;;;;;12.07;2.95;;;5.60;99.90;;;;;;5073529;28;20067;-67
2023/02/01 08:47:22;;;;;;;5.75;2.53;;;5.70;99.90;;;;;;5073481;28;20059;-65
2023/02/01 08:49:47;;;;;;;7.20;2.30;;;5.90;99.90;;;;;;5073031;28;20025;-64
2023/02/01 08:52:13;;;;;;;12.57;2.67;;;6.00;99.90;;;;;;5071660;28;20028;-65
2023/02/01 08:54:40;;;;;;;10.43;2.30;;;6.00;99.90;;;;;;5072896;28;20063;-64
2023/02/01 08:57:06;;;;;;;10.80;2.40;;;6.00;99.90;;;;;;5074223;28;20036;-66
2023/02/01 08:59:32;;;;;;;10.77;3.00;;;6.10;99.90;;;;;;5083093;28;20020;-66
2023/02/01 09:01:58;;;;;;;9.23;3.03;;;6.10;99.90;;;;;;5069099;28;20162;-66
2023/02/01 09:04:23;;;;;;;8.88;2.47;;;6.10;99.90;;;;;;5081979;28;20019;-66
2023/02/01 09:06:49;;;;;;;10.80;2.55;;;6.00;99.90;;;;;;5073065;28;20040;-66
2023/02/01 09:09:14;;;;;;;9.88;2.50;;;6.00;99.90;;;;;;5069429;28;20081;-66
2023/02/01 09:11:40;;;;;;;7.93;2.22;;;5.90;99.90;;;;;;5065706;28;20063;-66
2023/02/01 09:14:06;;;;;;;11.55;2.38;;;5.90;99.90;;;;;;5071099;28;20033;-66
2023/02/01 09:16:31;;;;;;;9.13;2.28;;;5.90;99.90;;;;;;5078901;28;20123;-66
2023/02/01 09:18:57;;;;;;;8.88;2.30;;;5.90;99.90;;;;;;5071630;28;20035;-66
2023/02/01 09:21:23;;;;;;;6.90;1.95;;;5.90;99.90;;;;;;5066983;28;20083;-66
2023/02/01 09:23:51;;;;;;;5.88;2.25;;;5.80;99.90;;;;;;5075983;28;20020;-66
2023/02/01 09:26:17;;;;;;;7.68;3.00;;;5.80;99.90;;;;;;5070496;28;20109;-66
2023/02/01 09:28:42;;;;;;;8.02;2.60;;;5.70;99.90;;;;;;5072254;28;20020;-67
2023/02/01 09:31:08;;;;;;;10.35;2.65;;;5.70;99.90;;;;;;5071822;28;20086;-66
2023/02/01 09:33:33;;;;;;;10.82;2.70;;;5.70;99.90;;;;;;5076975;28;20035;-66
2023/02/01 09:36:02;;;;;;;7.45;2.53;;;6.00;99.90;;;;;;5069877;28;20470;-67
2023/02/01 09:38:28;;;;;;;10.07;2.58;;;6.10;99.90;;;;;;5065614;28;20024;-65
2023/02/01 09:40:55;;;;;;;13.05;2.95;;;6.20;99.90;;;;;;5072000;28;20048;-66
2023/02/01 09:43:28;;;;;;;9.73;2.75;;;6.40;99.90;;;;;;5069917;28;20037;-66
2023/02/01 09:46:02;;;;;;;18.80;3.00;;;6.60;99.90;;;;;;5072411;28;20358;-66
2023/02/01 09:48:32;;;;;;;11.50;2.42;;;6.70;99.90;;;;;;5067527;28;20016;-66
2023/02/01 09:51:02;;;;;;;11.63;2.83;;;6.80;99.90;;;;;;5071945;28;20085;-66
2023/02/01 09:53:37;;;;;;;11.40;2.70;;;6.80;99.90;;;;;;5071368;28;20036;-66
2023/02/01 09:56:06;;;;;;;10.75;2.42;;;7.00;99.90;;;;;;5071044;28;20029;-65
2023/02/01 09:58:43;;;;;;;11.43;2.40;;;7.00;99.90;;;;;;5069798;28;20044;-65
2023/02/01 10:01:23;;;;;;;13.20;3.92;;;7.00;99.90;;;;;;5069661;28;20388;-66
2023/02/01 10:03:54;;;;;;;13.40;3.42;;;7.00;99.90;;;;;;5065489;28;20393;-66
2023/02/01 10:06:25;;;;;;;;;;;7.10;99.90;;;;;;5076140;28;20029;-66
2023/02/01 10:09:20;;;;;;;13.32;2.92;;;7.10;99.90;;;;;;5078823;28;19908;-67
2023/02/01 10:11:49;;;;;;;10.00;2.40;;;7.20;99.90;;;;;;5059088;28;20541;-66
2023/02/01 10:14:51;;;;;;;11.65;2.70;;;7.20;99.90;;;;;;5069921;28;20709;-66
2023/02/01 10:17:54;;;;;;;13.10;2.50;;;7.20;99.90;;;;;;5068848;28;20477;-67
2023/02/01 10:20:28;;;;;;;14.60;2.83;;;7.20;99.90;;;;;;5071364;28;20032;-67
2023/02/01 10:23:37;;;;;;;15.55;2.92;;;7.20;99.90;;;;;;5071087;28;20036;-66
2023/02/01 10:26:17;;;;;;;10.95;2.10;;;7.20;99.90;;;;;;5080868;28;20044;-67
2023/02/01 10:28:43;;;;;;;;;;;7.10;99.90;;;;;;5091978;28;20035;-66
2023/02/01 10:31:09;;;;;;;11.65;2.15;;;7.10;99.90;;;;;;5091024;28;19908;-66
2023/02/01 10:33:44;;;;;;;17.92;3.05;;;7.10;99.90;;;;;;5089237;28;20073;-66
2023/02/01 10:36:19;;;;;;;8.10;2.60;;;7.20;99.90;;;;;;5090740;28;20481;-66
2023/02/01 10:38:46;;;;;;;13.35;2.45;;;7.30;99.90;;;;;;5091010;28;20377;-65
2023/02/01 10:41:16;;;;;;;16.50;3.70;;;7.50;99.90;;;;;;5090346;28;20135;-66
2023/02/01 10:43:43;;;;;;;16.33;2.90;;;7.50;99.90;;;;;;5091259;28;20028;-66
2023/02/01 10:46:09;;;;;;;11.07;2.35;;;7.50;99.90;;;;;;5090945;28;20121;-66
2023/02/01 10:48:35;;;;;;;16.98;4.10;;;7.40;99.90;;;;;;5090366;28;20472;-66
2023/02/01 10:51:11;;;;;;;12.38;2.78;;;7.40;99.90;;;;;;5081744;28;20122;-66
2023/02/01 10:53:58;;;;;;;17.90;2.53;;;7.50;99.90;;;;;;5088366;28;20047;-66
2023/02/01 10:56:26;;;;;;;17.15;2.85;;;7.60;99.90;;;;;;5085460;28;20035;-66
2023/02/01 10:59:04;;;;;;;15.35;2.78;;;7.70;99.90;;;;;;5091077;28;20035;-66
2023/02/01 11:01:39;;;;;;;12.40;2.83;;;7.60;99.90;;;;;;5087259;28;20040;-66
2023/02/01 11:04:10;;;;;;;15.95;3.60;;;7.60;99.90;;;;;;5090213;28;20078;-66
2023/02/01 11:06:41;;;;;;;17.42;3.40;;;7.60;99.90;;;;;;5091443;28;20030;-66
2023/02/01 11:09:09;;;;;;;17.05;2.53;;;7.50;99.90;;;;;;5089367;28;20035;-64
2023/02/01 11:11:47;;;;;;;11.27;2.22;;;7.50;99.90;;;;;;5094217;28;20031;-65
2023/02/01 11:14:20;;;;;;;9.57;2.10;;;7.60;99.90;;;;;;5093298;28;20039;-64
2023/02/01 11:16:52;;;;;;;23.00;2.67;;;7.60;99.90;;;;;;5096564;28;20133;-65
2023/02/01 11:19:18;;;;;;;11.82;2.42;;;7.60;99.90;;;;;;5094514;28;20024;-64
2023/02/01 11:21:45;;;;;;;12.68;2.72;;;7.60;99.90;;;;;;5090849;28;20039;-65
2023/02/01 11:24:26;;;;;;;14.60;2.45;;;7.60;99.90;;;;;;5085675;28;20035;-64
2023/02/01 11:26:56;;;;;;;20.83;2.83;;;7.60;99.90;;;;;;5090360;28;20378;-65
2023/02/01 11:29:28;;;;;;;10.85;2.50;;;7.40;99.90;;;;;;5094466;28;20032;-66
2023/02/01 11:31:58;;;;;;;11.77;2.10;;;7.30;99.90;;;;;;5092009;28;20036;-66
2023/02/01 11:34:37;;;;;;;9.38;1.85;;;7.30;99.90;;;;;;5090045;28;20016;-65
2023/02/01 11:37:04;;;;;;;14.48;2.20;;;7.30;99.90;;;;;;5089851;28;20028;-65
2023/02/01 11:39:32;;;;;;;17.98;2.35;;;7.30;99.90;;;;;;5090200;28;20507;-64
2023/02/01 11:42:15;;;;;;;12.50;3.20;;;7.40;99.90;;;;;;5079369;28;20089;-65
2023/02/01 11:44:46;;;;;;;22.73;3.13;;;7.40;99.90;;;;;;5083179;28;20024;-64
2023/02/01 11:47:25;;;;;;;13.45;2.50;;;7.50;99.90;;;;;;5094355;28;20032;-66
2023/02/01 11:49:56;;;;;;;10.70;2.13;;;7.40;99.90;;;;;;5094522;28;20362;-63
2023/02/01 11:52:52;;;;;;;14.63;2.33;;;7.40;99.90;;;;;;5094931;28;20547;-64
2023/02/01 11:55:37;;;;;;;15.40;2.60;;;7.30;99.90;;;;;;5093198;28;20494;-64
2023/02/01 11:58:12;;;;;;;9.85;2.33;;;7.40;99.90;;;;;;5089641;28;20420;-64
2023/02/01 12:01:17;;;;;;;10.60;2.30;;;7.50;99.90;;;;;;5095184;28;20044;-67
2023/02/01 12:04:25;;;;;;;14.73;2.83;;;7.70;99.90;;;;;;5094777;28;20426;-66
2023/02/01 12:07:23;;;;;;;10.95;2.35;;;7.70;99.90;;;;;;5068150;28;20072;-64
2023/02/01 12:10:12;;;;;;;14.30;2.70;;;7.80;99.90;;;;;;5091641;28;20085;-67
2023/02/01 12:12:50;;;;;;;13.77;2.63;;;7.80;99.90;;;;;;5089453;28;20024;-65
2023/02/01 12:15:29;;;;;;;12.60;2.25;;;7.60;99.90;;;;;;5085249;28;20047;-65
2023/02/01 12:18:32;;;;;;;12.90;2.38;;;7.60;99.90;;;;;;5091501;28;20024;-65
2023/02/01 12:21:29;;;;;;;14.95;2.13;;;7.50;99.90;;;;;;5089457;28;20046;-65
2023/02/01 12:24:22;;;;;;;11.18;2.08;;;7.30;99.90;;;;;;5092159;28;20115;-65
2023/02/01 12:27:01;;;;;;;12.60;2.03;;;7.20;99.90;;;;;;5083924;28;20044;-65
2023/02/01 12:29:47;;;;;;;13.35;3.13;;;7.20;99.90;;;;;;5093443;28;20490;-65
2023/02/01 12:32:41;;;;;;;17.00;1.90;;;7.10;99.90;;;;;;5091316;28;20093;-65
2023/02/01 12:35:45;;;;;;;10.95;2.15;;;7.10;99.90;;;;;;5078589;28;20032;-66
2023/02/01 12:38:37;;;;;;;15.20;2.42;;;7.00;99.90;;;;;;5019305;28;20049;-66
2023/02/01 12:41:15;;;;;;;12.20;2.58;;;7.00;99.90;;;;;;5097058;28;20021;-66
2023/02/01 12:43:56;;;;;;;11.98;1.90;;;7.00;99.90;;;;;;5104615;28;20057;-66
2023/02/01 12:46:37;;;;;;;15.75;2.42;;;7.00;99.90;;;;;;5096679;28;20485;-66
2023/02/01 12:49:11;;;;;;;15.18;2.67;;;6.90;99.90;;;;;;5091797;28;20388;-66
2023/02/01 12:51:40;;;;;;;15.05;2.35;;;6.90;99.90;;;;;;5094115;28;20028;-65
2023/02/01 12:54:42;;;;;;;12.18;2.33;;;6.90;99.90;;;;;;5093610;28;20051;-66
2023/02/01 12:57:30;;;;;;;12.63;3.15;;;6.80;99.90;;;;;;5096843;28;20445;-65
2023/02/01 13:00:15;;;;;;;10.75;1.92;;;6.70;99.90;;;;;;5093689;28;20043;-65
2023/02/01 13:02:55;;;;;;;15.43;2.20;;;6.70;99.90;;;;;;5086456;28;20058;-65
2023/02/01 13:05:34;;;;;;;8.45;2.03;;;6.70;99.90;;;;;;5093269;28;20036;-65
2023/02/01 13:08:07;;;;;;;18.85;2.90;;;6.60;99.90;;;;;;5092132;28;20446;-66
2023/02/01 13:10:45;;;;;;;12.68;2.30;;;6.60;99.90;;;;;;5093436;28;20103;-65
2023/02/01 13:13:16;;;;;;;12.18;2.75;;;6.50;99.90;;;;;;5094857;28;20034;-65
2023/02/01 13:16:13;;;;;;;13.60;2.72;;;6.50;99.90;;;;;;5087641;28;20024;-65
2023/02/01 13:18:43;;;;;;;20.42;2.90;;;6.50;99.90;;;;;;5083508;28;20338;-65
2023/02/01 13:21:23;;;;;;;12.93;2.72;;;6.40;99.90;;;;;;5085692;28;20480;-66
2023/02/01 13:23:51;;;;;;;13.82;3.50;;;6.50;99.90;;;;;;5077912;28;20041;-65
2023/02/01 13:26:16;;;;;;;15.75;2.35;;;6.50;99.90;;;;;;5088433;28;20790;-65
2023/02/01 13:28:57;;;;;;;10.65;2.70;;;6.60;99.90;;;;;;5085439;28;20035;-65
2023/02/01 13:31:48;;;;;;;13.52;2.30;;;6.70;99.90;;;;;;5092916;28;20393;-65
2023/02/01 13:34:49;;;;;;;11.80;2.28;;;6.70;99.90;;;;;;5089896;28;20015;-66
2023/02/01 13:37:29;;;;;;;13.55;2.83;;;6.70;99.90;;;;;;5092137;28;20616;-65
2023/02/01 13:40:05;;;;;;;9.55;2.10;;;6.70;99.90;;;;;;5088031;28;20020;-65
2023/02/01 13:42:54;;;;;;;11.13;1.95;;;6.80;99.90;;;;;;5092302;28;20146;-65
2023/02/01 13:45:32;;;;;;;11.68;2.40;;;6.90;99.90;;;;;;5091986;28;20066;-65
2023/02/01 13:48:03;;;;;;;9.73;1.88;;;6.90;99.90;;;;;;5091462;28;20130;-66
2023/02/01 13:50:40;;;;;;;8.90;2.28;;;6.80;99.90;;;;;;5091711;28;20024;-65
2023/02/01 13:53:12;;;;;;;12.35;2.40;;;6.70;99.90;;;;;;5091521;28;20042;-65